Time;durP1;ratioP1;P1;durP2;ratioP2;P2;SDS_P1;SDS_P2;PMS_P1;PMS_P2;Temp;Humidity;BMP_temperature;BMP_pressure;BME280_temperature;BME280_humidity;BME280_pressure;Samples;Min_cycle;Max_cycle;Signal;HPM_P1;HPM_P2
2021/04/30 00:00:26;;;;;;;21.90;13.15;;;;;;;;;;5064797;28;20037;-84
2021/04/30 00:02:52;;;;;;;17.38;12.80;;;;;;;;;;5072476;28;20071;-84
2021/04/30 00:05:18;;;;;;;16.42;12.10;;;;;;;;;;5051940;28;20060;-84
2021/04/30 00:07:44;;;;;;;16.20;11.20;;;;;;;;;;5053002;28;20053;-84
2021/04/30 00:10:10;;;;;;;17.92;12.50;;;;;;;;;;5050739;28;20028;-84
2021/04/30 00:12:36;;;;;;;18.15;12.23;;;;;;;;;;5065284;28;20112;-84
2021/04/30 00:15:03;;;;;;;16.75;11.75;;;;;;;;;;5048569;28;20056;-84
2021/04/30 00:17:29;;;;;;;17.05;12.90;;;;;;;;;;5069845;28;20069;-84
2021/04/30 00:19:55;;;;;;;17.75;13.18;;;;;;;;;;5046967;28;20559;-84
2021/04/30 00:22:21;;;;;;;17.83;13.38;;;;;;;;;;5055709;28;20419;-84
2021/04/30 00:24:47;;;;;;;17.95;13.15;;;;;;;;;;5050950;28;20027;-84
2021/04/30 00:27:13;;;;;;;15.15;11.60;;;;;;;;;;5054029;28;20034;-84
2021/04/30 00:29:39;;;;;;;15.52;12.40;;;;;;;;;;5051074;28;20400;-84
2021/04/30 00:32:06;;;;;;;15.27;11.52;;;;;;;;;;5064980;28;20057;-84
2021/04/30 00:34:33;;;;;;;16.27;12.18;;;;;;;;;;5046468;28;20029;-84
2021/04/30 00:36:58;;;;;;;16.38;12.45;;;;;;;;;;5052459;28;20028;-84
2021/04/30 00:39:24;;;;;;;17.52;13.27;;;;;;;;;;5051649;28;20028;-84
2021/04/30 00:41:50;;;;;;;16.98;11.98;;;;;;;;;;5052969;28;20048;-85
2021/04/30 00:44:16;;;;;;;19.60;13.00;;;;;;;;;;5051871;28;20123;-85
2021/04/30 00:46:42;;;;;;;17.45;12.50;;;;;;;;;;5045294;28;20078;-83
2021/04/30 00:49:08;;;;;;;18.15;12.43;;;;;;;;;;5038277;28;20024;-83
2021/04/30 00:51:34;;;;;;;16.35;12.73;;;;;;;;;;5044597;28;20045;-83
2021/04/30 00:54:00;;;;;;;20.90;13.18;;;;;;;;;;5054560;28;20041;-85
2021/04/30 00:56:26;;;;;;;16.40;12.50;;;;;;;;;;5050667;28;20131;-83
2021/04/30 00:58:53;;;;;;;18.05;13.18;;;;;;;;;;5065897;28;20012;-83
2021/04/30 01:01:19;;;;;;;19.27;13.57;;;;;;;;;;5054935;28;21182;-85
2021/04/30 01:03:46;;;;;;;18.15;12.98;;;;;;;;;;5051616;28;20032;-85
2021/04/30 01:06:12;;;;;;;20.73;13.52;;;;;;;;;;5072526;28;20025;-85
2021/04/30 01:08:38;;;;;;;17.90;13.05;;;;;;;;;;5048387;28;20496;-85
2021/04/30 01:11:04;;;;;;;18.92;13.38;;;;;;;;;;5050409;28;20050;-85
2021/04/30 01:13:30;;;;;;;19.92;13.80;;;;;;;;;;5054592;28;20071;-84
2021/04/30 01:15:56;;;;;;;19.88;13.98;;;;;;;;;;5047083;28;20021;-85
2021/04/30 01:18:22;;;;;;;21.27;14.60;;;;;;;;;;5052512;28;20025;-85
2021/04/30 01:20:48;;;;;;;21.75;14.55;;;;;;;;;;5070669;28;20024;-85
2021/04/30 01:23:14;;;;;;;19.02;14.00;;;;;;;;;;5050504;28;20028;-85
2021/04/30 01:25:40;;;;;;;18.88;13.77;;;;;;;;;;5050352;28;20031;-85
2021/04/30 01:28:07;;;;;;;20.70;14.70;;;;;;;;;;5053719;28;20028;-85
2021/04/30 01:30:37;;;;;;;16.70;13.35;;;;;;;;;;5049878;28;20119;-85
2021/04/30 01:33:03;;;;;;;18.65;13.73;;;;;;;;;;5051371;28;20131;-84
2021/04/30 01:35:31;;;;;;;20.08;13.88;;;;;;;;;;5053813;28;20021;-85
2021/04/30 01:37:57;;;;;;;20.25;13.20;;;;;;;;;;5066531;28;20035;-85
2021/04/30 01:40:24;;;;;;;18.50;13.65;;;;;;;;;;5051646;28;20170;-85
2021/04/30 01:43:00;;;;;;;18.00;12.98;;;;;;;;;;5052702;28;20023;-85
2021/04/30 01:45:27;;;;;;;20.70;14.32;;;;;;;;;;5047323;28;20032;-85
2021/04/30 01:47:52;;;;;;;19.02;13.40;;;;;;;;;;5053546;28;20032;-85
2021/04/30 01:50:18;;;;;;;17.70;12.38;;;;;;;;;;5047987;28;20036;-85
2021/04/30 01:52:45;;;;;;;16.20;12.30;;;;;;;;;;5050525;28;20035;-85
2021/04/30 01:55:11;;;;;;;16.67;12.65;;;;;;;;;;5051093;28;20033;-85
2021/04/30 01:57:37;;;;;;;14.73;11.15;;;;;;;;;;5054992;28;20428;-85
2021/04/30 02:00:06;;;;;;;15.98;11.82;;;;;;;;;;5043303;28;20028;-85
2021/04/30 02:02:45;;;;;;;16.88;12.25;;;;;;;;;;5045476;28;20093;-85
2021/04/30 02:05:11;;;;;;;17.27;12.32;;;;;;;;;;5050107;28;20119;-85
2021/04/30 02:07:37;;;;;;;19.30;12.35;;;;;;;;;;5054606;28;20542;-85
2021/04/30 02:10:05;;;;;;;17.95;12.25;;;;;;;;;;5055049;28;20372;-85
2021/04/30 02:12:31;;;;;;;16.58;11.63;;;;;;;;;;5052058;28;20037;-85
2021/04/30 02:14:57;;;;;;;19.85;11.57;;;;;;;;;;5057843;28;20029;-85
2021/04/30 02:17:23;;;;;;;15.07;11.10;;;;;;;;;;5050661;28;20029;-84
2021/04/30 02:19:49;;;;;;;16.92;12.57;;;;;;;;;;5050579;28;20482;-85
2021/04/30 02:22:15;;;;;;;18.65;12.18;;;;;;;;;;5051077;28;20028;-84
2021/04/30 02:24:41;;;;;;;15.68;11.80;;;;;;;;;;5054337;28;20468;-85
2021/04/30 02:27:07;;;;;;;18.88;12.13;;;;;;;;;;5068978;28;20024;-84
2021/04/30 02:29:33;;;;;;;17.92;12.07;;;;;;;;;;5054502;28;20388;-84
2021/04/30 02:31:59;;;;;;;15.80;11.23;;;;;;;;;;5049686;28;20392;-85
2021/04/30 02:34:25;;;;;;;20.45;11.65;;;;;;;;;;5049213;28;20032;-85
2021/04/30 02:36:51;;;;;;;14.75;10.82;;;;;;;;;;5056721;28;20025;-84
2021/04/30 02:39:17;;;;;;;15.35;11.10;;;;;;;;;;5072040;28;20060;-85
2021/04/30 02:41:43;;;;;;;16.40;11.20;;;;;;;;;;5061521;28;20051;-85
2021/04/30 02:44:09;;;;;;;16.52;11.75;;;;;;;;;;5052733;28;20039;-84
2021/04/30 02:46:35;;;;;;;16.05;11.75;;;;;;;;;;5053535;28;20464;-84
2021/04/30 02:49:04;;;;;;;13.73;10.43;;;;;;;;;;5051006;28;20016;-84
2021/04/30 02:51:30;;;;;;;16.88;12.70;;;;;;;;;;5056296;28;20024;-84
2021/04/30 02:53:56;;;;;;;15.48;11.05;;;;;;;;;;5077253;28;20365;-84
2021/04/30 02:56:22;;;;;;;19.17;12.35;;;;;;;;;;5058716;28;20052;-84
2021/04/30 02:58:53;;;;;;;16.23;12.60;;;;;;;;;;5058900;28;20492;-85
2021/04/30 03:01:19;;;;;;;17.38;12.35;;;;;;;;;;5075505;28;20071;-85
2021/04/30 03:03:45;;;;;;;18.33;12.05;;;;;;;;;;5056429;28;20120;-84
2021/04/30 03:06:11;;;;;;;18.90;12.63;;;;;;;;;;5055809;28;20392;-84
2021/04/30 03:08:37;;;;;;;17.92;11.93;;;;;;;;;;5047601;28;20041;-84
2021/04/30 03:11:03;;;;;;;19.08;13.05;;;;;;;;;;5054722;28;20033;-84
2021/04/30 03:13:30;;;;;;;18.80;13.27;;;;;;;;;;5052046;28;20039;-85
2021/04/30 03:15:55;;;;;;;19.60;12.77;;;;;;;;;;5049585;28;20025;-84
2021/04/30 03:18:21;;;;;;;19.75;13.95;;;;;;;;;;5056399;28;20039;-84
2021/04/30 03:20:47;;;;;;;17.48;13.57;;;;;;;;;;5068479;28;20033;-84
2021/04/30 03:23:13;;;;;;;19.05;13.25;;;;;;;;;;5054118;28;20045;-84
2021/04/30 03:25:40;;;;;;;23.33;14.13;;;;;;;;;;5049651;28;20092;-84
2021/04/30 03:28:06;;;;;;;19.05;13.75;;;;;;;;;;5046979;28;20024;-84
2021/04/30 03:30:32;;;;;;;17.60;13.43;;;;;;;;;;5041124;28;20032;-84
2021/04/30 03:32:58;;;;;;;20.30;14.38;;;;;;;;;;5073190;28;20082;-85
2021/04/30 03:35:24;;;;;;;18.42;13.70;;;;;;;;;;5048432;28;20541;-85
2021/04/30 03:37:50;;;;;;;22.65;15.38;;;;;;;;;;5055183;28;20040;-85
2021/04/30 03:40:16;;;;;;;20.15;14.45;;;;;;;;;;5055651;28;20384;-85
2021/04/30 03:42:42;;;;;;;21.13;15.02;;;;;;;;;;5063912;28;20097;-85
2021/04/30 03:45:08;;;;;;;22.92;13.88;;;;;;;;;;5062613;28;20476;-85
2021/04/30 03:47:34;;;;;;;20.73;15.18;;;;;;;;;;5049527;28;20387;-85
2021/04/30 03:50:00;;;;;;;20.63;15.02;;;;;;;;;;5051097;28;20040;-85
2021/04/30 03:52:26;;;;;;;20.90;14.77;;;;;;;;;;5045259;28;20021;-85
2021/04/30 03:54:52;;;;;;;23.40;16.60;;;;;;;;;;5049524;28;20108;-84
2021/04/30 03:57:18;;;;;;;20.02;15.25;;;;;;;;;;5070283;28;20028;-85
2021/04/30 03:59:44;;;;;;;22.23;15.63;;;;;;;;;;5044697;28;20020;-85
2021/04/30 04:02:10;;;;;;;29.20;15.85;;;;;;;;;;5054276;28;20537;-85
2021/04/30 04:04:36;;;;;;;19.30;14.77;;;;;;;;;;5055190;28;20487;-85
2021/04/30 04:07:02;;;;;;;19.90;15.35;;;;;;;;;;5051317;28;20029;-85
2021/04/30 04:09:28;;;;;;;20.00;15.50;;;;;;;;;;5051919;28;20089;-85
2021/04/30 04:11:54;;;;;;;20.33;15.35;;;;;;;;;;5051322;28;21173;-85
2021/04/30 04:14:20;;;;;;;22.08;15.65;;;;;;;;;;5064220;28;20125;-85
2021/04/30 04:16:46;;;;;;;19.08;14.05;;;;;;;;;;5067952;28;20043;-85
2021/04/30 04:19:14;;;;;;;22.48;14.55;;;;;;;;;;5043908;28;20115;-85
2021/04/30 04:21:40;;;;;;;20.23;14.93;;;;;;;;;;5046925;28;20021;-85
2021/04/30 04:24:06;;;;;;;21.40;14.90;;;;;;;;;;5048965;28;20365;-85
2021/04/30 04:26:32;;;;;;;22.95;15.32;;;;;;;;;;5053284;28;20115;-85
2021/04/30 04:28:59;;;;;;;20.10;14.63;;;;;;;;;;5070326;28;20070;-85
2021/04/30 04:31:25;;;;;;;18.75;14.82;;;;;;;;;;5068961;28;20032;-85
2021/04/30 04:33:51;;;;;;;20.50;14.90;;;;;;;;;;5045860;28;20033;-85
2021/04/30 04:36:17;;;;;;;21.38;15.27;;;;;;;;;;5047416;28;20473;-87
2021/04/30 04:38:43;;;;;;;21.25;16.15;;;;;;;;;;5049460;28;20052;-84
2021/04/30 04:41:09;;;;;;;21.88;15.07;;;;;;;;;;5051497;28;20029;-84
2021/04/30 04:43:35;;;;;;;19.30;13.55;;;;;;;;;;5052118;28;20028;-84
2021/04/30 04:46:01;;;;;;;21.23;15.70;;;;;;;;;;5054365;28;20031;-84
2021/04/30 04:48:27;;;;;;;18.02;14.40;;;;;;;;;;5054511;28;20060;-84
2021/04/30 04:50:53;;;;;;;21.33;14.40;;;;;;;;;;5050605;28;20074;-83
2021/04/30 04:53:19;;;;;;;22.58;15.50;;;;;;;;;;5062528;28;20376;-84
2021/04/30 04:55:45;;;;;;;24.27;16.52;;;;;;;;;;5054905;28;20032;-83
2021/04/30 04:58:11;;;;;;;19.95;14.38;;;;;;;;;;5073387;28;20100;-85
2021/04/30 05:00:37;;;;;;;21.60;15.23;;;;;;;;;;5056656;28;20032;-84
2021/04/30 05:03:03;;;;;;;21.52;15.18;;;;;;;;;;5056467;28;20032;-85
2021/04/30 05:05:29;;;;;;;26.75;15.93;;;;;;;;;;5057789;28;20066;-83
2021/04/30 05:07:55;;;;;;;20.83;14.82;;;;;;;;;;5050120;28;20041;-84
2021/04/30 05:10:21;;;;;;;25.48;15.23;;;;;;;;;;5052460;28;20047;-84
2021/04/30 05:12:47;;;;;;;20.70;14.90;;;;;;;;;;5050385;28;20025;-84
2021/04/30 05:15:14;;;;;;;23.08;14.88;;;;;;;;;;5051447;28;20097;-84
2021/04/30 05:17:40;;;;;;;20.85;14.75;;;;;;;;;;5052806;28;20028;-85
2021/04/30 05:20:06;;;;;;;19.67;14.80;;;;;;;;;;5048548;28;20023;-83
2021/04/30 05:22:34;;;;;;;23.65;15.07;;;;;;;;;;5043684;28;20884;-85
2021/04/30 05:25:00;;;;;;;19.95;15.45;;;;;;;;;;5071726;28;20021;-84
2021/04/30 05:27:26;;;;;;;21.23;15.15;;;;;;;;;;5057599;28;20043;-83
2021/04/30 05:29:52;;;;;;;21.10;14.10;;;;;;;;;;5051647;28;20021;-84
2021/04/30 05:32:18;;;;;;;20.15;14.85;;;;;;;;;;5055571;28;20385;-84
2021/04/30 05:34:44;;;;;;;19.55;14.15;;;;;;;;;;5065408;28;20021;-85
2021/04/30 05:37:10;;;;;;;18.33;13.88;;;;;;;;;;5056938;28;20028;-85
2021/04/30 05:39:36;;;;;;;24.58;14.70;;;;;;;;;;5047929;28;20029;-85
2021/04/30 05:42:03;;;;;;;18.60;14.02;;;;;;;;;;5038598;28;20112;-85
2021/04/30 05:44:29;;;;;;;17.35;13.13;;;;;;;;;;5051894;28;20047;-85
2021/04/30 05:46:55;;;;;;;19.50;14.38;;;;;;;;;;5070500;28;20029;-85
2021/04/30 05:49:21;;;;;;;19.95;13.23;;;;;;;;;;5049336;28;20024;-85
2021/04/30 05:51:47;;;;;;;17.33;13.52;;;;;;;;;;5039381;28;20028;-85
2021/04/30 05:54:13;;;;;;;19.15;13.98;;;;;;;;;;5056522;28;20699;-85
2021/04/30 05:56:39;;;;;;;18.95;13.90;;;;;;;;;;5050558;28;20025;-84
2021/04/30 05:59:05;;;;;;;19.98;13.68;;;;;;;;;;5044008;28;20029;-85
2021/04/30 06:01:45;;;;;;;18.38;13.73;;;;;;;;;;5055949;28;20074;-84
2021/04/30 06:04:11;;;;;;;18.77;14.27;;;;;;;;;;5072620;28;20107;-85
2021/04/30 06:06:37;;;;;;;17.98;14.07;;;;;;;;;;5074985;28;20028;-85
2021/04/30 06:09:03;;;;;;;19.55;13.90;;;;;;;;;;5073438;28;20048;-85
2021/04/30 06:11:29;;;;;;;21.30;13.35;;;;;;;;;;5047177;28;20136;-85
2021/04/30 06:13:55;;;;;;;18.42;13.40;;;;;;;;;;5068508;28;20473;-85
2021/04/30 06:16:21;;;;;;;17.50;13.40;;;;;;;;;;5051864;28;20055;-84
2021/04/30 06:18:47;;;;;;;18.73;12.57;;;;;;;;;;5057041;28;20048;-85
2021/04/30 06:21:13;;;;;;;15.50;12.63;;;;;;;;;;5052151;28;20028;-85
2021/04/30 06:23:38;;;;;;;20.88;13.77;;;;;;;;;;5041638;28;20017;-85
2021/04/30 06:26:04;;;;;;;18.48;13.68;;;;;;;;;;5056900;28;20020;-85
2021/04/30 06:28:30;;;;;;;18.20;13.32;;;;;;;;;;5056153;28;20059;-85
2021/04/30 06:30:56;;;;;;;17.60;13.68;;;;;;;;;;5055714;28;20035;-86
2021/04/30 06:33:23;;;;;;;17.63;13.15;;;;;;;;;;5056454;28;20488;-85
2021/04/30 06:35:49;;;;;;;17.52;12.23;;;;;;;;;;5056787;28;20028;-85
2021/04/30 06:38:15;;;;;;;18.20;11.23;;;;;;;;;;5056273;28;20472;-85
2021/04/30 06:40:41;;;;;;;13.45;10.20;;;;;;;;;;5041357;28;20120;-85
2021/04/30 06:43:07;;;;;;;10.57;7.53;;;;;;;;;;5036903;28;20047;-85
2021/04/30 06:45:33;;;;;;;9.50;7.43;;;;;;;;;;5054029;28;20038;-85
2021/04/30 06:47:59;;;;;;;9.75;7.03;;;;;;;;;;5067855;28;20025;-86
2021/04/30 06:50:25;;;;;;;8.20;5.53;;;;;;;;;;5053765;28;20491;-85
2021/04/30 06:52:55;;;;;;;9.00;5.70;;;;;;;;;;5073567;28;20495;-85
2021/04/30 06:55:21;;;;;;;7.32;4.60;;;;;;;;;;5056115;28;20024;-85
2021/04/30 06:57:47;;;;;;;5.97;4.70;;;;;;;;;;5049564;28;20031;-86
2021/04/30 07:00:16;;;;;;;7.95;4.80;;;;;;;;;;5056594;28;20032;-85
2021/04/30 07:02:42;;;;;;;5.75;4.60;;;;;;;;;;5043746;28;20079;-85
2021/04/30 07:05:08;;;;;;;5.18;4.25;;;;;;;;;;5050198;28;20033;-85
2021/04/30 07:07:34;;;;;;;5.13;3.95;;;;;;;;;;5055023;28;20396;-85
2021/04/30 07:10:00;;;;;;;5.68;3.80;;;;;;;;;;5056194;28;20032;-85
2021/04/30 07:12:26;;;;;;;5.15;3.92;;;;;;;;;;5060240;28;20036;-85
2021/04/30 07:14:52;;;;;;;5.28;3.50;;;;;;;;;;5063179;28;20040;-85
2021/04/30 07:17:18;;;;;;;7.53;4.88;;;;;;;;;;5056068;28;20392;-85
2021/04/30 07:19:44;;;;;;;5.50;4.13;;;;;;;;;;5059096;28;20023;-85
2021/04/30 07:22:11;;;;;;;6.32;4.80;;;;;;;;;;5058206;28;20097;-85
2021/04/30 07:24:37;;;;;;;6.60;4.60;;;;;;;;;;5051784;28;20025;-85
2021/04/30 07:27:04;;;;;;;6.45;4.40;;;;;;;;;;5073805;28;20032;-85
2021/04/30 07:29:30;;;;;;;5.40;4.13;;;;;;;;;;5042893;28;20029;-85
2021/04/30 07:31:57;;;;;;;5.78;4.28;;;;;;;;;;5039369;28;20017;-84
2021/04/30 07:34:23;;;;;;;8.85;5.32;;;;;;;;;;5042011;28;20033;-83
2021/04/30 07:36:49;;;;;;;5.43;4.00;;;;;;;;;;5045040;28;20598;-85
2021/04/30 07:39:15;;;;;;;6.28;3.85;;;;;;;;;;5058178;28;20032;-85
2021/04/30 07:41:41;;;;;;;6.15;3.70;;;;;;;;;;5056413;28;20532;-86
2021/04/30 07:44:07;;;;;;;5.82;3.20;;;;;;;;;;5068544;28;20025;-85
2021/04/30 07:46:33;;;;;;;5.25;3.05;;;;;;;;;;5045409;28;20021;-85
2021/04/30 07:48:59;;;;;;;6.00;2.88;;;;;;;;;;5055754;28;20017;-86
2021/04/30 07:51:25;;;;;;;3.67;2.75;;;;;;;;;;5050455;28;20471;-85
2021/04/30 07:53:51;;;;;;;3.92;3.08;;;;;;;;;;5073686;28;20055;-85
2021/04/30 07:56:17;;;;;;;3.33;2.83;;;;;;;;;;5055295;28;20035;-85
2021/04/30 07:58:43;;;;;;;5.22;3.22;;;;;;;;;;5044484;28;20124;-84
2021/04/30 08:01:09;;;;;;;5.60;3.00;;;;;;;;;;5041916;28;20377;-85
2021/04/30 08:03:35;;;;;;;4.60;2.97;;;;;;;;;;5043322;28;20017;-85
2021/04/30 08:06:01;;;;;;;3.53;2.80;;;;;;;;;;5042791;28;20024;-86
2021/04/30 08:08:27;;;;;;;7.15;3.47;;;;;;;;;;5053339;28;20052;-85
2021/04/30 08:10:53;;;;;;;3.88;2.90;;;;;;;;;;5053040;28;20448;-85
2021/04/30 08:13:19;;;;;;;5.80;3.05;;;;;;;;;;5046932;28;20115;-85
2021/04/30 08:15:45;;;;;;;4.20;2.58;;;;;;;;;;5049293;28;20024;-86
2021/04/30 08:18:11;;;;;;;4.28;2.88;;;;;;;;;;5044938;28;20025;-86
2021/04/30 08:20:37;;;;;;;5.00;3.08;;;;;;;;;;5048774;28;20051;-85
2021/04/30 08:23:04;;;;;;;4.20;2.33;;;;;;;;;;5055411;28;20111;-85
2021/04/30 08:25:30;;;;;;;3.80;2.60;;;;;;;;;;5065302;28;20021;-85
2021/04/30 08:27:56;;;;;;;4.80;2.65;;;;;;;;;;5045511;28;20500;-85
2021/04/30 08:30:22;;;;;;;2.33;2.10;;;;;;;;;;5054600;28;20459;-86
2021/04/30 08:32:48;;;;;;;3.78;2.40;;;;;;;;;;5044445;28;20044;-86
2021/04/30 08:35:14;;;;;;;2.60;2.20;;;;;;;;;;5052699;28;20496;-85
2021/04/30 08:37:40;;;;;;;5.90;2.40;;;;;;;;;;5061176;28;20013;-86
2021/04/30 08:40:07;;;;;;;3.63;1.90;;;;;;;;;;5051890;28;20013;-86
2021/04/30 08:42:34;;;;;;;6.97;2.70;;;;;;;;;;5046468;28;20028;-86
2021/04/30 08:45:00;;;;;;;4.28;2.50;;;;;;;;;;5044820;28;20048;-86
2021/04/30 08:47:26;;;;;;;4.60;2.80;;;;;;;;;;5051971;28;20463;-86
2021/04/30 08:49:56;;;;;;;3.00;2.30;;;;;;;;;;5045674;28;20028;-85
2021/04/30 08:52:22;;;;;;;5.20;2.47;;;;;;;;;;5040999;28;20021;-85
2021/04/30 08:54:52;;;;;;;4.20;2.70;;;;;;;;;;5067559;28;20078;-85
2021/04/30 08:57:23;;;;;;;4.10;2.95;;;;;;;;;;5057997;28;20073;-85
2021/04/30 08:59:51;;;;;;;4.68;3.03;;;;;;;;;;5043167;28;20491;-86
2021/04/30 09:02:17;;;;;;;5.68;3.70;;;;;;;;;;5043755;28;20119;-85
2021/04/30 09:04:43;;;;;;;5.97;3.30;;;;;;;;;;5065413;28;20593;-86
2021/04/30 09:07:16;;;;;;;4.03;2.90;;;;;;;;;;5045413;28;20025;-85
2021/04/30 09:10:01;;;;;;;3.78;3.00;;;;;;;;;;5049136;28;20052;-85
2021/04/30 09:12:28;;;;;;;5.35;3.45;;;;;;;;;;5044280;28;20025;-85
2021/04/30 09:14:54;;;;;;;4.93;3.47;;;;;;;;;;5052444;28;20031;-86
2021/04/30 09:17:20;;;;;;;4.47;3.03;;;;;;;;;;5069891;28;20028;-85
2021/04/30 09:19:56;;;;;;;4.70;2.90;;;;;;;;;;5052073;28;20107;-86
2021/04/30 09:22:24;;;;;;;4.93;3.30;;;;;;;;;;5048250;28;20025;-85
2021/04/30 09:24:51;;;;;;;10.35;3.75;;;;;;;;;;5050108;28;20104;-85
2021/04/30 09:27:38;;;;;;;6.00;3.05;;;;;;;;;;5052460;28;20498;-85
2021/04/30 09:30:16;;;;;;;3.63;2.90;;;;;;;;;;5056837;28;20380;-85
2021/04/30 09:33:01;;;;;;;5.07;3.03;;;;;;;;;;5042294;28;20028;-85
2021/04/30 09:35:27;;;;;;;5.75;2.90;;;;;;;;;;5053951;28;20032;-85
2021/04/30 09:37:53;;;;;;;4.65;3.53;;;;;;;;;;5053484;28;20032;-86
2021/04/30 09:40:25;;;;;;;3.67;2.97;;;;;;;;;;5064550;28;20024;-85
2021/04/30 09:43:01;;;;;;;4.88;3.40;;;;;;;;;;5055858;28;20082;-85
2021/04/30 09:45:27;;;;;;;3.15;2.65;;;;;;;;;;5070515;28;20034;-86
2021/04/30 09:47:58;;;;;;;4.60;3.33;;;;;;;;;;5042395;28;20423;-85
2021/04/30 09:50:25;;;;;;;5.07;3.85;;;;;;;;;;5053503;28;20024;-86
2021/04/30 09:53:01;;;;;;;6.57;3.65;;;;;;;;;;5051079;28;20522;-87
2021/04/30 09:55:40;;;;;;;7.75;3.97;;;;;;;;;;5060834;28;20483;-86
2021/04/30 09:58:18;;;;;;;8.77;4.20;;;;;;;;;;5047446;28;20021;-86
2021/04/30 10:00:46;;;;;;;7.18;4.40;;;;;;;;;;5065419;28;20021;-85
2021/04/30 10:03:13;;;;;;;8.55;5.03;;;;;;;;;;5046483;28;20048;-85
2021/04/30 10:05:57;;;;;;;7.28;4.80;;;;;;;;;;5047423;28;20128;-85
2021/04/30 10:08:24;;;;;;;5.30;4.70;;;;;;;;;;5065326;28;20211;-85
2021/04/30 10:10:50;;;;;;;7.80;5.00;;;;;;;;;;5063742;28;20052;-85
2021/04/30 10:13:16;;;;;;;8.43;4.82;;;;;;;;;;5047586;28;20062;-85
2021/04/30 10:15:42;;;;;;;7.43;4.57;;;;;;;;;;5046344;28;20025;-85
2021/04/30 10:18:08;;;;;;;7.07;4.55;;;;;;;;;;5045819;28;20020;-85
2021/04/30 10:20:34;;;;;;;9.35;5.03;;;;;;;;;;5058702;28;20396;-85
2021/04/30 10:23:01;;;;;;;7.25;4.75;;;;;;;;;;5049528;28;20108;-85
2021/04/30 10:25:29;;;;;;;8.32;4.72;;;;;;;;;;5041977;28;20021;-85
2021/04/30 10:27:56;;;;;;;7.28;4.70;;;;;;;;;;5044854;28;20372;-84
2021/04/30 10:30:35;;;;;;;7.75;4.40;;;;;;;;;;5066310;28;20154;-84
2021/04/30 10:33:19;;;;;;;6.32;3.80;;;;;;;;;;5048545;28;20059;-85
2021/04/30 10:36:04;;;;;;;6.82;4.63;;;;;;;;;;5053217;28;20147;-85
2021/04/30 10:38:32;;;;;;;8.65;4.20;;;;;;;;;;5050581;28;20025;-85
2021/04/30 10:41:02;;;;;;;5.20;3.50;;;;;;;;;;5055604;28;20035;-85
2021/04/30 10:43:29;;;;;;;7.47;4.75;;;;;;;;;;5046737;28;20025;-85
2021/04/30 10:46:21;;;;;;;6.00;4.20;;;;;;;;;;5065505;28;20095;-85
2021/04/30 10:49:08;;;;;;;7.50;4.18;;;;;;;;;;5050886;28;20051;-86
2021/04/30 10:51:35;;;;;;;6.40;4.07;;;;;;;;;;5055247;28;20024;-85
2021/04/30 10:54:20;;;;;;;6.13;4.15;;;;;;;;;;5058486;28;20032;-85
2021/04/30 10:56:56;;;;;;;5.25;3.60;;;;;;;;;;5059329;28;20032;-85
2021/04/30 10:59:26;;;;;;;6.43;3.83;;;;;;;;;;5059472;28;20071;-85
2021/04/30 11:01:56;;;;;;;5.50;3.70;;;;;;;;;;5053480;28;20021;-85
2021/04/30 11:04:22;;;;;;;4.65;3.58;;;;;;;;;;5050703;28;20108;-84
2021/04/30 11:06:51;;;;;;;4.57;3.33;;;;;;;;;;5057961;28;20112;-84
2021/04/30 11:09:34;;;;;;;6.70;3.83;;;;;;;;;;5056427;28;20055;-84
2021/04/30 11:12:01;;;;;;;5.03;3.47;;;;;;;;;;5041798;28;20029;-84
2021/04/30 11:14:32;;;;;;;4.65;3.33;;;;;;;;;;5047196;28;20098;-84
2021/04/30 11:17:00;;;;;;;5.63;3.88;;;;;;;;;;5046850;28;20024;-85
2021/04/30 11:19:28;;;;;;;4.72;3.45;;;;;;;;;;5056579;28;20037;-85
2021/04/30 11:21:55;;;;;;;5.93;4.22;;;;;;;;;;5054186;28;20567;-85
2021/04/30 11:24:27;;;;;;;5.93;3.85;;;;;;;;;;5076578;28;20043;-85
2021/04/30 11:27:08;;;;;;;5.88;4.18;;;;;;;;;;5071970;28;20090;-85
2021/04/30 11:29:34;;;;;;;4.80;3.75;;;;;;;;;;5044469;28;20025;-84
2021/04/30 11:32:21;;;;;;;4.57;3.60;;;;;;;;;;5057719;28;20154;-84
2021/04/30 11:34:59;;;;;;;6.50;4.22;;;;;;;;;;5075172;28;20024;-84
2021/04/30 11:37:26;;;;;;;5.60;3.58;;;;;;;;;;5044850;28;20481;-84
2021/04/30 11:39:53;;;;;;;8.38;4.97;;;;;;;;;;5054378;28;20044;-84
2021/04/30 11:42:19;;;;;;;6.47;4.50;;;;;;;;;;5072502;28;20028;-84
2021/04/30 11:44:45;;;;;;;7.13;4.45;;;;;;;;;;5069259;28;20484;-84
2021/04/30 11:47:14;;;;;;;7.13;4.28;;;;;;;;;;5045602;28;20055;-84
2021/04/30 11:49:42;;;;;;;6.20;4.32;;;;;;;;;;5058127;28;20028;-84
2021/04/30 11:52:11;;;;;;;7.22;4.65;;;;;;;;;;5047114;28;20024;-84
2021/04/30 11:54:38;;;;;;;6.00;4.30;;;;;;;;;;5058898;28;20051;-84
2021/04/30 11:57:08;;;;;;;10.98;5.32;;;;;;;;;;5061463;28;20052;-84
2021/04/30 11:59:35;;;;;;;6.03;4.68;;;;;;;;;;5060528;28;20028;-85
2021/04/30 12:02:07;;;;;;;6.63;4.75;;;;;;;;;;5055112;28;20515;-84
2021/04/30 12:04:40;;;;;;;6.13;4.30;;;;;;;;;;5051893;28;20060;-85
2021/04/30 12:07:06;;;;;;;7.78;4.45;;;;;;;;;;5070807;28;20035;-86
2021/04/30 12:09:32;;;;;;;10.23;4.72;;;;;;;;;;5053977;28;20029;-86
2021/04/30 12:12:17;;;;;;;6.15;4.60;;;;;;;;;;5054598;28;20024;-85
2021/04/30 12:15:03;;;;;;;8.20;5.05;;;;;;;;;;5071273;28;20495;-85
2021/04/30 12:17:39;;;;;;;7.72;4.85;;;;;;;;;;5038995;28;20127;-84
2021/04/30 12:20:06;;;;;;;6.43;4.30;;;;;;;;;;5053854;28;20025;-85
2021/04/30 12:22:32;;;;;;;5.97;4.55;;;;;;;;;;5053064;28;20039;-84
2021/04/30 12:25:16;;;;;;;8.80;4.82;;;;;;;;;;5069520;28;20079;-84
2021/04/30 12:27:42;;;;;;;7.93;5.25;;;;;;;;;;5067298;28;20486;-84
2021/04/30 12:30:08;;;;;;;9.13;5.80;;;;;;;;;;5053418;28;20029;-84
2021/04/30 12:32:34;;;;;;;7.93;5.80;;;;;;;;;;5054254;28;20127;-84
2021/04/30 12:35:00;;;;;;;8.57;5.85;;;;;;;;;;5053223;28;20063;-84
2021/04/30 12:37:26;;;;;;;8.43;5.97;;;;;;;;;;5048223;28;20049;-84
2021/04/30 12:39:52;;;;;;;9.23;5.82;;;;;;;;;;5050412;28;20111;-85
2021/04/30 12:42:18;;;;;;;10.23;5.88;;;;;;;;;;5048216;28;20130;-85
2021/04/30 12:44:56;;;;;;;10.02;6.95;;;;;;;;;;5045355;28;20036;-85
2021/04/30 12:47:26;;;;;;;12.15;7.60;;;;;;;;;;5055190;28;20017;-84
2021/04/30 12:49:52;;;;;;;13.32;7.38;;;;;;;;;;5052137;28;20473;-85
2021/04/30 12:52:19;;;;;;;9.20;6.88;;;;;;;;;;5051274;28;20492;-85
2021/04/30 12:54:46;;;;;;;8.75;6.43;;;;;;;;;;5043838;28;20103;-85
2021/04/30 12:57:13;;;;;;;10.93;7.25;;;;;;;;;;5051806;28;20473;-85
2021/04/30 12:59:58;;;;;;;10.60;6.75;;;;;;;;;;5053516;28;20036;-85
2021/04/30 13:02:30;;;;;;;9.20;6.32;;;;;;;;;;5074337;28;20476;-85
2021/04/30 13:04:57;;;;;;;10.00;6.90;;;;;;;;;;5042395;28;20060;-85
2021/04/30 13:07:23;;;;;;;9.88;6.63;;;;;;;;;;5047998;28;20110;-86
2021/04/30 13:09:49;;;;;;;10.30;6.70;;;;;;;;;;5039756;28;20061;-86
2021/04/30 13:12:15;;;;;;;11.23;7.60;;;;;;;;;;5050816;28;20060;-85
2021/04/30 13:14:41;;;;;;;11.23;7.40;;;;;;;;;;5049455;28;20056;-87
2021/04/30 13:17:35;;;;;;;9.43;7.03;;;;;;;;;;5051000;28;20024;-89
2021/04/30 13:20:15;;;;;;;12.52;6.85;;;;;;;;;;5062019;28;20037;-85
2021/04/30 13:22:41;;;;;;;11.68;7.82;;;;;;;;;;5065097;28;20119;-86
2021/04/30 13:25:08;;;;;;;9.48;6.70;;;;;;;;;;5047512;28;20031;-86
2021/04/30 13:27:50;;;;;;;9.15;6.50;;;;;;;;;;5048696;28;20024;-86
2021/04/30 13:30:17;;;;;;;10.82;7.30;;;;;;;;;;5065007;28;20078;-86
2021/04/30 13:32:43;;;;;;;11.15;7.13;;;;;;;;;;5067290;28;21157;-86
2021/04/30 13:35:09;;;;;;;9.50;6.57;;;;;;;;;;5066314;28;20094;-86
2021/04/30 13:37:40;;;;;;;12.90;7.72;;;;;;;;;;5049607;28;20652;-86
2021/04/30 13:40:09;;;;;;;8.93;6.93;;;;;;;;;;5048722;28;20040;-86
2021/04/30 13:42:42;;;;;;;9.25;7.13;;;;;;;;;;5050066;28;20089;-86
2021/04/30 13:45:09;;;;;;;9.70;6.93;;;;;;;;;;5050340;28;20035;-86
2021/04/30 13:47:36;;;;;;;11.77;7.18;;;;;;;;;;5053026;28;20028;-85
2021/04/30 13:50:03;;;;;;;10.88;7.05;;;;;;;;;;5069148;28;20083;-85
2021/04/30 13:52:29;;;;;;;8.82;6.53;;;;;;;;;;5052137;28;20131;-86
2021/04/30 13:54:55;;;;;;;9.00;6.40;;;;;;;;;;5052113;28;20354;-86
2021/04/30 13:57:22;;;;;;;8.82;6.72;;;;;;;;;;5052266;28;20032;-86
2021/04/30 13:59:48;;;;;;;10.02;6.38;;;;;;;;;;5062880;28;20021;-87
2021/04/30 14:02:15;;;;;;;11.20;7.25;;;;;;;;;;5046385;28;20123;-86
2021/04/30 14:04:42;;;;;;;9.77;6.63;;;;;;;;;;5039191;28;20021;-86
2021/04/30 14:07:08;;;;;;;11.80;7.30;;;;;;;;;;5051755;28;20094;-86
2021/04/30 14:09:35;;;;;;;8.23;6.40;;;;;;;;;;5051627;28;20097;-85
2021/04/30 14:12:01;;;;;;;9.55;6.78;;;;;;;;;;5044437;28;20452;-87
2021/04/30 14:14:27;;;;;;;8.75;5.85;;;;;;;;;;5050855;28;20032;-86
2021/04/30 14:16:53;;;;;;;8.18;5.90;;;;;;;;;;5045865;28;20036;-86
2021/04/30 14:19:19;;;;;;;11.10;6.43;;;;;;;;;;5050444;28;20028;-86
2021/04/30 14:21:45;;;;;;;8.07;5.97;;;;;;;;;;5046506;28;20145;-85
2021/04/30 14:24:11;;;;;;;8.95;5.85;;;;;;;;;;5051243;28;20906;-85
2021/04/30 14:26:38;;;;;;;9.77;6.05;;;;;;;;;;5048816;28;20412;-85
2021/04/30 14:29:05;;;;;;;10.60;5.55;;;;;;;;;;5050105;28;20031;-85
2021/04/30 14:31:31;;;;;;;7.93;5.95;;;;;;;;;;5052429;28;20111;-85
2021/04/30 14:33:57;;;;;;;7.10;4.90;;;;;;;;;;5054882;28;20111;-85